Time;durP1;ratioP1;P1;durP2;ratioP2;P2;SDS_P1;SDS_P2;PMS_P1;PMS_P2;Temp;Humidity;BMP_temperature;BMP_pressure;BME280_temperature;BME280_humidity;BME280_pressure;Samples;Min_cycle;Max_cycle;Signal;HPM_P1;HPM_P2
2022/08/12 00:44:40;;;;;;;3.03;1.40;;;25.70;1.00;;;;;;5064092;28;20922;-84
2022/08/12 00:47:11;;;;;;;1.50;1.40;;;25.70;1.00;;;;;;5062439;28;20451;-84
2022/08/12 00:49:54;;;;;;;1.60;1.50;;;25.70;1.00;;;;;;5065305;28;20474;-83
2022/08/12 00:52:25;;;;;;;2.60;1.30;;;25.60;1.00;;;;;;5068545;28;21337;-83
2022/08/12 00:54:55;;;;;;;1.40;1.30;;;25.60;1.00;;;;;;5067687;28;20466;-82
2022/08/12 00:57:27;;;;;;;1.77;1.67;;;25.60;1.00;;;;;;5067146;28;20545;-82
2022/08/12 00:59:57;;;;;;;4.03;1.63;;;25.60;1.00;;;;;;5069917;28;20515;-81
2022/08/12 01:02:28;;;;;;;1.73;1.43;;;25.60;1.00;;;;;;5066895;28;20483;-83
2022/08/12 01:13:24;;;;;;;1.43;1.33;;;25.40;1.00;;;;;;5064627;28;20464;-83
2022/08/12 01:15:54;;;;;;;1.30;1.20;;;25.40;1.00;;;;;;5065498;28;20446;-83
2022/08/12 01:18:25;;;;;;;1.80;1.70;;;25.30;1.00;;;;;;5061039;28;21396;-82
2022/08/12 01:21:03;;;;;;;2.30;1.40;;;25.30;1.00;;;;;;5068292;28;20900;-83
2022/08/12 01:24:13;;;;;;;1.87;1.43;;;25.30;1.00;;;;;;5063991;28;20454;-83
2022/08/12 01:27:02;;;;;;;1.60;1.50;;;25.20;1.00;;;;;;5065953;28;20458;-83
2022/08/12 01:29:42;;;;;;;1.70;1.60;;;25.20;1.00;;;;;;5070414;28;20454;-83
2022/08/12 01:32:13;;;;;;;2.27;1.50;;;25.20;1.00;;;;;;5070229;28;21201;-83
2022/08/12 01:34:50;;;;;;;2.33;2.23;;;25.20;1.00;;;;;;5067771;28;20454;-82
2022/08/12 01:37:22;;;;;;;2.20;2.00;;;25.20;1.00;;;;;;5066477;28;20448;-83
2022/08/12 01:39:53;;;;;;;1.87;1.40;;;25.20;1.00;;;;;;5066879;28;20461;-83
2022/08/12 01:42:46;;;;;;;2.13;1.80;;;25.10;1.00;;;;;;5066205;28;20570;-82
2022/08/12 01:45:21;;;;;;;3.33;1.37;;;25.10;1.00;;;;;;5096600;28;20466;-82
2022/08/12 01:47:59;;;;;;;2.07;1.30;;;25.10;1.00;;;;;;5068407;28;20454;-83
2022/08/12 01:50:40;;;;;;;1.60;1.50;;;25.00;1.00;;;;;;5066008;28;20581;-83
2022/08/12 01:53:13;;;;;;;1.60;1.50;;;25.00;1.00;;;;;;5065086;28;20561;-81
2022/08/12 01:55:45;;;;;;;1.50;1.40;;;25.00;1.00;;;;;;5067684;28;20451;-82
2022/08/12 01:58:27;;;;;;;1.90;1.50;;;25.00;1.00;;;;;;5064094;28;20850;-82
2022/08/12 02:01:02;;;;;;;10.00;1.90;;;25.00;1.00;;;;;;5066647;28;20474;-83
2022/08/12 02:12:48;;;;;;;1.60;1.50;;;24.90;1.00;;;;;;5075006;28;20481;-84
2022/08/12 02:15:27;;;;;;;1.43;1.33;;;24.90;1.00;;;;;;5065403;28;20454;-82
2022/08/12 02:18:04;;;;;;;2.83;1.40;;;24.90;1.00;;;;;;5072202;28;20454;-81
2022/08/12 02:20:38;;;;;;;3.20;1.60;;;25.00;1.00;;;;;;5070393;28;20453;-82
2022/08/12 02:23:25;;;;;;;2.00;1.47;;;24.90;1.00;;;;;;5067980;28;20458;-84
2022/08/12 02:25:58;;;;;;;1.60;1.50;;;25.00;1.00;;;;;;5072939;28;20945;-83
2022/08/12 02:28:27;;;;;;;1.40;1.30;;;25.00;1.00;;;;;;5073886;28;20504;-83
2022/08/12 02:31:01;;;;;;;1.57;1.47;;;24.90;1.00;;;;;;5074649;28;20449;-82
2022/08/12 02:33:30;;;;;;;2.60;1.70;;;24.90;1.00;;;;;;5072716;28;20956;-82
2022/08/12 02:36:01;;;;;;;1.40;1.30;;;24.90;1.00;;;;;;5072535;28;20458;-83
2022/08/12 02:38:30;;;;;;;1.60;1.50;;;24.90;1.00;;;;;;5070570;28;20450;-83
2022/08/12 02:41:02;;;;;;;1.30;1.20;;;24.90;1.00;;;;;;5066506;28;20489;-83
2022/08/12 02:43:36;;;;;;;1.93;1.60;;;24.80;1.00;;;;;;5069789;28;21096;-83
2022/08/12 02:46:07;;;;;;;1.60;1.50;;;24.80;1.00;;;;;;5065685;28;20831;-82
2022/08/12 02:48:46;;;;;;;1.60;1.50;;;24.80;1.00;;;;;;5064672;28;20845;-82
2022/08/12 02:51:23;;;;;;;1.93;1.70;;;24.80;1.00;;;;;;5069912;28;20470;-81
2022/08/12 02:53:52;;;;;;;1.70;1.60;;;24.80;1.00;;;;;;5071482;28;20465;-83
2022/08/12 02:56:39;;;;;;;1.57;1.47;;;24.70;1.00;;;;;;5070282;28;20497;-81
2022/08/12 02:59:09;;;;;;;1.53;1.43;;;24.70;1.00;;;;;;5070073;28;20450;-82
2022/08/12 03:01:46;;;;;;;1.83;1.60;;;24.70;1.00;;;;;;5069484;28;20466;-84
2022/08/12 03:04:25;;;;;;;1.63;1.50;;;24.70;1.00;;;;;;5067378;28;20478;-84
2022/08/12 03:07:02;;;;;;;2.80;1.40;;;24.60;1.00;;;;;;5072590;28;20454;-83
2022/08/12 03:09:36;;;;;;;1.50;1.40;;;24.60;1.00;;;;;;5067266;28;20446;-82
2022/08/12 03:12:25;;;;;;;1.47;1.37;;;24.60;1.00;;;;;;5068445;28;20498;-83
2022/08/12 03:15:05;;;;;;;1.70;1.60;;;24.60;1.00;;;;;;5072083;28;20541;-82
2022/08/12 03:17:44;;;;;;;1.37;1.27;;;24.60;1.00;;;;;;5071615;28;20461;-82
2022/08/12 03:20:39;;;;;;;1.53;1.40;;;24.60;1.00;;;;;;5066527;28;20544;-82
2022/08/12 03:23:11;;;;;;;2.67;1.40;;;24.60;1.00;;;;;;5072356;28;20485;-84
2022/08/12 03:25:57;;;;;;;1.73;1.50;;;24.60;1.00;;;;;;5070121;28;20447;-83
2022/08/12 03:31:14;;;;;;;1.73;1.20;;;24.50;1.00;;;;;;5068892;28;20478;-83
2022/08/12 03:33:45;;;;;;;1.70;1.60;;;24.50;1.00;;;;;;5068230;28;20454;-82
2022/08/12 03:36:30;;;;;;;2.03;1.93;;;24.50;1.00;;;;;;5068886;28;20434;-83
2022/08/12 03:41:59;;;;;;;2.37;2.27;;;24.40;1.00;;;;;;5109724;27;20687;-82
2022/08/12 04:01:15;;;;;;;3.83;2.03;;;23.70;1.00;;;;;;5072559;28;20489;-82
2022/08/12 04:03:53;;;;;;;3.67;2.60;;;23.60;1.00;;;;;;5077585;28;20966;-82
2022/08/12 04:06:25;;;;;;;2.10;2.00;;;23.50;1.00;;;;;;5078899;28;20456;-83
2022/08/12 04:09:05;;;;;;;4.93;2.30;;;23.40;1.00;;;;;;5080456;28;20535;-83
2022/08/12 04:14:33;;;;;;;2.17;2.00;;;23.30;1.00;;;;;;5078011;28;20454;-84
2022/08/12 04:17:02;;;;;;;2.47;1.83;;;23.30;1.00;;;;;;5079861;28;20958;-82
2022/08/12 04:19:31;;;;;;;2.00;1.70;;;23.20;1.00;;;;;;5073449;28;20475;-83
2022/08/12 04:21:59;;;;;;;3.10;1.60;;;23.20;1.00;;;;;;5078002;28;20563;-82
2022/08/12 04:24:33;;;;;;;2.50;2.07;;;23.20;1.00;;;;;;5077817;28;20450;-82
2022/08/12 04:27:05;;;;;;;2.07;1.53;;;23.20;1.00;;;;;;5076322;28;20942;-82
2022/08/12 04:29:36;;;;;;;2.53;2.07;;;23.20;1.00;;;;;;5075850;28;20458;-82
2022/08/12 04:32:24;;;;;;;2.13;2.03;;;23.20;1.00;;;;;;5076825;28;20466;-82
2022/08/12 04:34:53;;;;;;;2.17;1.97;;;23.20;1.00;;;;;;5070534;28;20478;-83
2022/08/12 04:37:22;;;;;;;2.23;2.03;;;23.10;1.00;;;;;;5077489;28;20485;-83
2022/08/12 04:39:51;;;;;;;3.87;1.90;;;23.10;1.00;;;;;;5075492;28;20441;-82
2022/08/12 04:42:20;;;;;;;2.33;2.13;;;23.10;1.00;;;;;;5073046;28;20458;-83
2022/08/12 04:44:49;;;;;;;3.43;2.20;;;23.10;1.00;;;;;;5072733;28;20901;-82
2022/08/12 04:47:19;;;;;;;1.90;1.80;;;23.10;1.00;;;;;;5078068;28;20446;-83
2022/08/12 04:49:48;;;;;;;3.53;2.40;;;23.10;1.00;;;;;;5075710;28;20447;-83
2022/08/12 04:52:16;;;;;;;2.43;1.97;;;23.00;1.00;;;;;;5073127;28;21216;-83
2022/08/12 04:54:46;;;;;;;2.20;2.00;;;23.00;1.00;;;;;;5062966;28;20452;-83
2022/08/12 04:57:14;;;;;;;2.13;1.90;;;23.00;1.00;;;;;;5067044;28;20450;-81
2022/08/12 04:59:43;;;;;;;2.50;2.30;;;22.90;1.00;;;;;;5066876;28;20479;-85
2022/08/12 05:02:18;;;;;;;3.37;2.50;;;22.90;1.00;;;;;;5064971;28;20527;-83
2022/08/12 05:04:51;;;;;;;2.20;1.97;;;22.90;1.00;;;;;;5063089;28;20455;-84
2022/08/12 05:07:22;;;;;;;3.67;2.80;;;22.90;1.00;;;;;;5066531;28;20446;-83
2022/08/12 05:09:50;;;;;;;2.67;2.47;;;22.90;1.00;;;;;;5062110;28;20494;-83
2022/08/12 05:12:35;;;;;;;4.77;2.60;;;22.90;1.00;;;;;;5066609;28;20505;-84
2022/08/12 05:15:06;;;;;;;2.30;2.13;;;22.90;1.00;;;;;;5064372;28;20462;-85
2022/08/12 05:17:55;;;;;;;4.03;2.47;;;22.80;1.00;;;;;;5063118;28;20454;-83
2022/08/12 05:20:29;;;;;;;2.37;2.00;;;22.80;1.00;;;;;;5063683;28;20979;-83
2022/08/12 05:23:08;;;;;;;4.23;2.30;;;22.80;1.00;;;;;;5063550;28;20503;-83
2022/08/12 05:25:41;;;;;;;2.53;2.30;;;22.80;1.00;;;;;;5061631;28;20466;-82
2022/08/12 05:28:11;;;;;;;2.60;2.40;;;22.80;1.00;;;;;;5061546;28;20816;-83
2022/08/12 05:30:41;;;;;;;4.03;2.30;;;22.80;1.00;;;;;;5064109;28;20490;-85
2022/08/12 05:33:12;;;;;;;2.70;2.10;;;22.70;1.00;;;;;;5072409;28;20463;-82
2022/08/12 05:35:43;;;;;;;3.30;3.00;;;22.90;1.00;;;;;;5062930;28;20459;-83
2022/08/12 05:40:59;;;;;;;2.60;2.20;;;22.90;1.00;;;;;;5066882;28;20467;-82
2022/08/12 05:43:28;;;;;;;2.30;2.00;;;22.90;1.00;;;;;;5066960;28;20466;-82
2022/08/12 05:45:57;;;;;;;2.40;2.13;;;23.00;1.00;;;;;;5061439;28;20460;-81
2022/08/12 05:48:29;;;;;;;2.17;1.80;;;23.00;1.00;;;;;;5071191;28;20545;-83
2022/08/12 05:50:57;;;;;;;2.70;2.37;;;23.00;1.00;;;;;;5064803;28;21009;-82
2022/08/12 05:53:26;;;;;;;2.90;2.70;;;23.00;1.00;;;;;;5071385;28;20481;-83
2022/08/12 05:55:54;;;;;;;6.60;2.77;;;23.00;1.00;;;;;;5067923;28;20484;-83
2022/08/12 05:58:22;;;;;;;5.37;2.93;;;23.00;1.00;;;;;;5065235;28;20490;-84
2022/08/12 06:00:51;;;;;;;4.40;2.17;;;23.10;1.00;;;;;;5056952;28;20967;-84
2022/08/12 06:03:20;;;;;;;3.13;2.47;;;23.10;1.00;;;;;;5069689;28;20966;-82
2022/08/12 06:05:50;;;;;;;2.17;2.07;;;23.10;1.00;;;;;;5062368;28;20531;-82
2022/08/12 06:08:23;;;;;;;11.10;4.43;;;23.20;1.00;;;;;;5067370;28;20455;-82
2022/08/12 06:10:53;;;;;;;2.80;1.77;;;23.30;1.00;;;;;;5070405;28;20465;-82
2022/08/12 06:13:21;;;;;;;3.63;1.47;;;23.40;1.00;;;;;;5063665;28;20469;-80
2022/08/12 06:16:10;;;;;;;1.60;1.50;;;23.50;1.00;;;;;;5054814;28;21139;-79
2022/08/12 06:18:39;;;;;;;3.57;1.90;;;23.60;1.00;;;;;;5062568;28;20450;-82
2022/08/12 06:21:10;;;;;;;2.30;2.10;;;23.70;1.00;;;;;;5051778;28;20493;-82
2022/08/12 06:23:39;;;;;;;1.67;1.57;;;23.90;1.00;;;;;;5054286;28;20466;-79
2022/08/12 06:26:11;;;;;;;3.33;1.50;;;24.00;1.00;;;;;;5059262;28;20447;-80
2022/08/12 06:28:40;;;;;;;1.90;1.80;;;24.10;1.00;;;;;;5064547;28;20513;-80
2022/08/12 06:31:14;;;;;;;2.60;1.53;;;24.20;1.00;;;;;;5071262;28;20969;-80
2022/08/12 06:33:54;;;;;;;1.70;1.50;;;24.30;1.00;;;;;;5055090;28;20959;-81
2022/08/12 06:36:44;;;;;;;1.77;1.53;;;24.40;1.00;;;;;;5054253;28;20450;-79
2022/08/12 06:39:13;;;;;;;1.50;1.40;;;24.60;1.00;;;;;;5056760;28;20462;-81
2022/08/12 06:44:49;;;;;;;1.77;1.60;;;24.80;1.00;;;;;;5060584;28;20828;-81
2022/08/12 06:47:18;;;;;;;1.87;1.77;;;25.00;1.00;;;;;;5057684;28;20463;-79
2022/08/12 06:49:48;;;;;;;1.83;1.30;;;25.10;6.50;;;;;;5049717;28;20527;-78
2022/08/12 06:52:23;;;;;;;2.50;1.20;;;25.20;1.00;;;;;;5053302;28;20466;-80
2022/08/12 06:54:54;;;;;;;1.57;1.47;;;25.30;1.00;;;;;;5060214;28;20752;-78
2022/08/12 06:57:26;;;;;;;3.20;1.40;;;25.50;1.00;;;;;;5059533;28;20447;-81
2022/08/12 07:00:20;;;;;;;2.17;1.60;;;25.60;1.00;;;;;;5052145;28;20451;-79
2022/08/12 07:02:56;;;;;;;1.43;1.30;;;25.70;1.00;;;;;;5048937;28;20487;-80
2022/08/12 07:05:24;;;;;;;1.30;1.20;;;25.80;1.00;;;;;;5049220;28;20865;-79
2022/08/12 07:08:08;;;;;;;1.70;1.50;;;25.90;1.00;;;;;;5054296;28;20446;-79
2022/08/12 07:10:42;;;;;;;2.60;1.50;;;26.00;1.00;;;;;;5052451;28;20460;-79
2022/08/12 07:13:11;;;;;;;1.83;1.50;;;26.10;1.00;;;;;;5056390;28;20499;-80
2022/08/12 07:15:44;;;;;;;1.67;1.30;;;26.10;1.00;;;;;;5051663;28;20455;-79
2022/08/12 07:18:16;;;;;;;3.63;1.30;;;26.20;1.00;;;;;;5050829;28;20456;-78
2022/08/12 07:20:47;;;;;;;2.03;1.30;;;26.30;1.00;;;;;;5056406;28;20452;-79
2022/08/12 07:23:21;;;;;;;1.57;1.43;;;26.40;1.00;;;;;;5052905;28;20509;-80
2022/08/12 07:25:49;;;;;;;1.67;1.30;;;26.40;1.00;;;;;;5057043;28;20930;-79
2022/08/12 07:28:27;;;;;;;1.87;1.50;;;26.50;1.10;;;;;;5050505;28;20534;-79
2022/08/12 07:30:56;;;;;;;2.23;1.50;;;26.60;1.00;;;;;;5053551;28;20458;-79
2022/08/12 07:33:27;;;;;;;1.60;1.50;;;26.60;1.00;;;;;;5054002;28;20949;-79
2022/08/12 07:36:01;;;;;;;3.40;1.50;;;26.70;1.00;;;;;;5050768;28;20450;-80
2022/08/12 07:38:33;;;;;;;1.50;1.40;;;26.70;1.20;;;;;;5050790;28;20459;-78
2022/08/12 07:41:05;;;;;;;1.50;1.40;;;26.70;1.00;;;;;;5052571;28;20465;-79
2022/08/12 07:43:36;;;;;;;2.90;1.30;;;26.70;1.90;;;;;;5052227;28;20481;-79
2022/08/12 07:46:09;;;;;;;1.77;1.30;;;26.80;1.00;;;;;;5049467;28;20537;-79
2022/08/12 07:48:40;;;;;;;1.27;1.17;;;26.70;1.00;;;;;;5060645;28;20463;-79
2022/08/12 07:51:10;;;;;;;1.90;1.50;;;26.70;1.00;;;;;;5050231;28;20455;-80
2022/08/12 07:53:54;;;;;;;2.70;1.27;;;26.70;1.00;;;;;;5048557;28;20447;-77
2022/08/12 07:56:29;;;;;;;1.40;1.30;;;26.80;1.20;;;;;;5049555;28;20473;-79
2022/08/12 07:58:59;;;;;;;1.43;1.33;;;26.90;1.00;;;;;;5049654;28;20464;-79
2022/08/12 08:01:29;;;;;;;1.63;1.30;;;26.90;2.20;;;;;;5052744;28;20838;-78
2022/08/12 08:06:47;;;;;;;1.87;1.50;;;26.80;1.00;;;;;;5051123;28;20451;-77
2022/08/12 08:09:20;;;;;;;2.80;1.43;;;26.90;1.00;;;;;;5051133;28;20457;-77
2022/08/12 08:14:35;;;;;;;3.63;1.50;;;26.90;1.60;;;;;;5048632;28;20451;-75
2022/08/12 08:17:05;;;;;;;2.03;1.27;;;26.90;1.90;;;;;;5052947;28;20462;-78
2022/08/12 08:19:34;;;;;;;1.30;1.20;;;27.00;2.40;;;;;;5051125;28;20459;-76
2022/08/12 08:22:23;;;;;;;1.30;1.20;;;27.00;1.30;;;;;;5052457;28;20566;-78
2022/08/12 08:25:12;;;;;;;1.30;1.20;;;27.00;1.00;;;;;;5055189;28;20992;-76
2022/08/12 08:28:02;;;;;;;3.20;1.20;;;27.00;1.00;;;;;;5062290;28;20455;-76
2022/08/12 08:30:32;;;;;;;1.20;1.10;;;27.00;1.00;;;;;;5064980;28;21216;-76
2022/08/12 08:33:01;;;;;;;2.80;1.50;;;27.00;1.00;;;;;;5054411;28;20979;-77
2022/08/12 08:35:47;;;;;;;1.73;1.50;;;27.00;1.40;;;;;;5054496;28;20538;-76
2022/08/12 08:38:17;;;;;;;1.70;1.00;;;27.00;1.10;;;;;;5053740;28;21424;-76
2022/08/12 08:44:09;;;;;;;3.00;1.40;;;27.10;1.50;;;;;;5059738;28;20475;-77
2022/08/12 08:46:39;;;;;;;1.93;1.20;;;27.20;2.20;;;;;;5056095;28;20462;-78
2022/08/12 08:49:07;;;;;;;1.77;1.33;;;27.20;2.20;;;;;;5061609;28;20457;-76
2022/08/12 08:51:37;;;;;;;1.53;1.40;;;27.20;1.90;;;;;;5065620;28;20482;-76
2022/08/12 08:54:07;;;;;;;1.30;1.10;;;27.30;2.80;;;;;;5067549;28;20965;-79
2022/08/12 08:56:42;;;;;;;1.20;0.97;;;27.30;4.00;;;;;;5062149;28;20562;-76
2022/08/12 08:59:12;;;;;;;1.87;1.43;;;27.30;2.50;;;;;;5056843;28;20550;-78
2022/08/12 09:01:41;;;;;;;1.20;1.10;;;27.40;2.30;;;;;;5069219;28;20478;-77
2022/08/12 09:04:12;;;;;;;1.17;1.03;;;27.40;1.00;;;;;;5060750;28;20482;-77
2022/08/12 09:07:01;;;;;;;1.20;1.10;;;27.40;1.10;;;;;;5063192;28;20850;-77
2022/08/12 09:09:51;;;;;;;1.20;1.10;;;27.40;1.90;;;;;;5068045;28;20496;-77
2022/08/12 09:15:30;;;;;;;1.33;1.23;;;27.40;1.00;;;;;;5056477;28;20444;-78
2022/08/12 09:18:04;;;;;;;1.07;1.03;;;27.50;1.30;;;;;;5062609;28;20452;-80
2022/08/12 09:20:38;;;;;;;1.20;1.10;;;27.50;2.20;;;;;;5063557;28;20852;-79
2022/08/12 09:23:09;;;;;;;1.90;1.20;;;27.50;2.20;;;;;;5058005;28;20474;-78
2022/08/12 09:26:01;;;;;;;1.67;1.27;;;27.60;2.40;;;;;;5072817;28;20536;-80
2022/08/12 09:28:34;;;;;;;1.40;1.30;;;27.60;3.90;;;;;;5059677;28;20493;-78
2022/08/12 09:31:04;;;;;;;2.63;1.30;;;27.70;4.40;;;;;;5066918;28;21041;-76
2022/08/12 09:33:53;;;;;;;1.30;1.20;;;27.70;2.60;;;;;;5066982;28;20454;-78
2022/08/12 09:36:42;;;;;;;1.50;1.40;;;27.50;1.00;;;;;;5053333;28;20470;-79
2022/08/12 09:39:28;;;;;;;1.50;1.33;;;27.50;1.00;;;;;;5056115;28;20464;-79
2022/08/12 09:45:27;;;;;;;1.33;1.23;;;27.30;1.00;;;;;;4987592;28;20819;-77
2022/08/12 09:48:18;;;;;;;1.60;1.37;;;27.40;1.00;;;;;;5067446;28;20443;-77
2022/08/12 09:50:51;;;;;;;1.40;1.30;;;27.50;1.00;;;;;;5064042;28;20446;-78
2022/08/12 09:53:24;;;;;;;1.30;1.20;;;27.60;1.00;;;;;;5068140;28;20458;-78
2022/08/12 09:56:09;;;;;;;1.37;1.00;;;27.60;1.00;;;;;;5064170;28;20442;-77
2022/08/12 09:58:57;;;;;;;3.80;1.20;;;27.50;1.00;;;;;;5062887;28;20482;-78
2022/08/12 10:01:31;;;;;;;1.60;1.50;;;27.50;1.00;;;;;;5060634;28;20501;-80
2022/08/12 10:04:19;;;;;;;1.77;1.23;;;27.60;1.00;;;;;;5059819;28;20509;-78
2022/08/12 10:06:48;;;;;;;1.17;1.07;;;27.60;1.10;;;;;;5056855;28;20541;-77
2022/08/12 10:09:25;;;;;;;1.50;1.40;;;27.60;1.00;;;;;;5053174;28;20447;-77
2022/08/12 10:15:00;;;;;;;1.50;1.20;;;27.60;1.00;;;;;;5051343;28;20986;-76
2022/08/12 10:17:31;;;;;;;1.20;1.10;;;27.60;1.00;;;;;;5055703;28;20464;-78
2022/08/12 10:19:59;;;;;;;1.03;1.03;;;27.70;1.50;;;;;;5051956;28;20593;-78
2022/08/12 10:22:29;;;;;;;1.20;1.07;;;27.80;2.70;;;;;;5057334;28;20846;-78
2022/08/12 10:31:30;;;;;;;1.40;1.30;;;28.00;15.10;;;;;;5054205;28;20459;-78
2022/08/12 10:34:22;;;;;;;1.33;1.23;;;28.00;5.20;;;;;;5060908;28;20501;-79
2022/08/12 10:36:57;;;;;;;1.17;1.07;;;28.00;3.80;;;;;;5061345;28;20499;-79
2022/08/12 10:39:31;;;;;;;1.30;1.20;;;28.00;3.40;;;;;;5060194;28;20546;-80
2022/08/12 10:45:16;;;;;;;1.30;1.20;;;28.10;4.70;;;;;;5053808;28;20978;-80
2022/08/12 10:47:51;;;;;;;1.53;1.30;;;28.20;5.40;;;;;;5058311;28;20490;-79
2022/08/12 10:50:41;;;;;;;2.73;1.10;;;28.20;5.40;;;;;;5054152;28;20983;-75
2022/08/12 10:53:29;;;;;;;1.67;1.50;;;28.10;4.10;;;;;;5056627;28;20460;-78
2022/08/12 10:56:14;;;;;;;1.90;1.30;;;28.10;4.50;;;;;;5056618;28;20550;-79
2022/08/12 10:58:43;;;;;;;1.57;1.47;;;28.10;4.10;;;;;;5058279;28;20692;-77
2022/08/12 11:01:14;;;;;;;1.33;1.23;;;28.20;4.60;;;;;;5053575;28;21060;-79
2022/08/12 11:04:04;;;;;;;1.33;1.23;;;28.20;6.10;;;;;;5054877;28;20526;-77
2022/08/12 11:06:53;;;;;;;1.60;1.50;;;28.20;7.80;;;;;;5057894;28;20542;-77
2022/08/12 11:09:42;;;;;;;3.13;1.33;;;28.30;4.80;;;;;;5050924;28;20451;-78
2022/08/12 11:12:29;;;;;;;1.20;1.10;;;28.20;5.50;;;;;;5057914;28;20537;-79
2022/08/12 11:15:22;;;;;;;1.40;1.30;;;28.30;5.90;;;;;;5055055;28;20440;-80
2022/08/12 11:18:10;;;;;;;1.30;1.20;;;28.30;6.90;;;;;;5054867;28;20484;-78
2022/08/12 11:20:47;;;;;;;2.20;1.37;;;28.30;6.30;;;;;;5058094;28;20460;-77
2022/08/12 11:23:21;;;;;;;1.30;1.20;;;28.30;5.90;;;;;;5057877;28;20471;-79
2022/08/12 11:26:06;;;;;;;1.30;1.20;;;28.30;5.90;;;;;;5060325;28;20822;-79
2022/08/12 11:28:36;;;;;;;1.47;1.10;;;28.30;6.70;;;;;;5053501;28;20455;-77
2022/08/12 11:31:08;;;;;;;1.77;1.20;;;28.30;5.10;;;;;;5054059;28;20528;-81
2022/08/12 11:33:42;;;;;;;3.53;1.37;;;28.30;3.40;;;;;;5052611;28;20447;-77
2022/08/12 11:36:30;;;;;;;2.60;1.60;;;28.30;2.80;;;;;;5052317;28;20501;-77
2022/08/12 11:39:00;;;;;;;1.93;1.40;;;28.30;4.00;;;;;;5049436;28;20585;-77
2022/08/12 11:41:33;;;;;;;1.13;1.00;;;28.30;3.40;;;;;;5054516;28;20486;-76
2022/08/12 11:44:02;;;;;;;1.20;1.10;;;28.30;3.90;;;;;;5053675;28;20574;-78
2022/08/12 11:46:52;;;;;;;1.30;1.00;;;28.40;4.90;;;;;;5064959;28;21101;-80
2022/08/12 11:49:22;;;;;;;1.63;1.30;;;28.50;5.70;;;;;;5048912;28;20459;-78
2022/08/12 11:52:01;;;;;;;5.00;1.70;;;28.50;6.80;;;;;;5055812;28;20478;-79
2022/08/12 11:54:31;;;;;;;1.20;1.10;;;28.50;6.80;;;;;;5053275;28;20447;-78
2022/08/12 11:57:01;;;;;;;1.60;1.50;;;28.50;7.80;;;;;;5060735;28;20549;-78
2022/08/12 11:59:49;;;;;;;3.13;1.27;;;28.50;7.10;;;;;;5053237;28;20539;-78
2022/08/12 12:02:38;;;;;;;1.30;1.20;;;28.50;7.40;;;;;;5056792;28;21213;-80
2022/08/12 12:05:07;;;;;;;1.10;1.00;;;28.50;8.30;;;;;;5058913;28;20489;-80
2022/08/12 12:07:38;;;;;;;1.50;1.20;;;28.50;6.40;;;;;;5054359;28;20463;-78
2022/08/12 12:10:28;;;;;;;1.30;1.20;;;28.60;5.80;;;;;;5055554;28;20457;-77
2022/08/12 12:12:56;;;;;;;1.50;1.30;;;28.60;7.20;;;;;;5054815;28;20886;-78
2022/08/12 12:15:24;;;;;;;0.97;0.93;;;28.60;7.40;;;;;;5054585;28;20439;-78
2022/08/12 12:18:20;;;;;;;1.23;1.13;;;28.60;6.80;;;;;;5059415;28;20458;-78
2022/08/12 12:21:00;;;;;;;1.17;1.10;;;28.50;6.40;;;;;;5057025;28;20505;-80
2022/08/12 12:23:33;;;;;;;1.30;1.20;;;28.40;3.00;;;;;;5059947;28;20447;-79
2022/08/12 12:26:05;;;;;;;1.10;1.10;;;28.40;4.40;;;;;;5057894;28;20562;-79
2022/08/12 12:28:45;;;;;;;1.93;1.43;;;28.50;5.00;;;;;;5063681;28;20454;-79
2022/08/12 12:31:23;;;;;;;1.07;1.00;;;28.60;6.50;;;;;;5056972;28;21013;-78
2022/08/12 12:34:11;;;;;;;1.60;1.50;;;28.60;6.90;;;;;;5060074;28;20534;-78
2022/08/12 12:36:57;;;;;;;1.43;1.27;;;28.60;5.30;;;;;;5065813;28;20446;-78
2022/08/12 12:39:28;;;;;;;3.33;1.20;;;28.60;6.60;;;;;;5063784;28;20436;-79
2022/08/12 12:42:18;;;;;;;0.90;0.90;;;28.60;3.70;;;;;;5055831;28;20467;-78
2022/08/12 12:45:08;;;;;;;1.93;1.10;;;28.70;4.20;;;;;;5057862;28;20473;-78
2022/08/12 12:47:58;;;;;;;1.30;1.20;;;28.70;2.90;;;;;;5060533;28;20442;-79
2022/08/12 12:50:29;;;;;;;1.40;1.30;;;28.70;5.40;;;;;;5061677;28;20941;-78
2022/08/12 12:53:03;;;;;;;2.00;1.10;;;28.80;6.60;;;;;;5056610;28;20471;-78
2022/08/12 12:55:34;;;;;;;1.20;1.10;;;28.90;6.50;;;;;;5059888;28;20497;-79
2022/08/12 12:58:10;;;;;;;1.70;1.20;;;29.00;7.20;;;;;;5060028;28;20466;-78
2022/08/12 13:00:43;;;;;;;1.00;1.00;;;29.10;7.60;;;;;;5053847;28;20451;-79
2022/08/12 13:03:20;;;;;;;1.10;1.00;;;29.20;8.60;;;;;;5060029;28;20495;-79
2022/08/12 13:05:49;;;;;;;1.77;1.20;;;29.20;9.10;;;;;;5056240;28;20482;-79
2022/08/12 13:08:23;;;;;;;1.30;1.20;;;29.30;8.50;;;;;;5057371;28;20447;-78
2022/08/12 13:10:59;;;;;;;1.20;1.10;;;29.30;7.90;;;;;;5060675;28;20435;-79
2022/08/12 13:13:30;;;;;;;2.83;1.10;;;29.30;8.10;;;;;;5061860;28;20487;-78
2022/08/12 13:16:20;;;;;;;1.63;1.53;;;29.30;7.60;;;;;;5063999;28;20439;-79
2022/08/12 13:18:49;;;;;;;1.70;1.10;;;29.30;7.60;;;;;;5060132;28;20450;-78
2022/08/12 13:21:18;;;;;;;1.30;1.20;;;29.20;7.60;;;;;;5065374;28;20543;-78
2022/08/12 13:24:04;;;;;;;1.40;1.30;;;29.20;6.70;;;;;;5060840;28;20455;-78
2022/08/12 13:26:39;;;;;;;1.27;1.17;;;29.10;6.20;;;;;;5061194;28;20505;-78
2022/08/12 13:29:09;;;;;;;1.20;1.10;;;29.00;6.50;;;;;;5070054;28;20450;-78
2022/08/12 13:31:40;;;;;;;1.60;1.20;;;29.00;6.10;;;;;;5064819;28;20531;-77
2022/08/12 13:34:29;;;;;;;1.30;1.20;;;29.00;4.60;;;;;;5071964;28;20469;-78
2022/08/12 13:37:03;;;;;;;1.90;1.40;;;28.90;4.20;;;;;;5061134;28;20550;-78
2022/08/12 13:39:38;;;;;;;1.40;1.30;;;28.90;4.60;;;;;;5059313;28;20438;-78
2022/08/12 13:42:08;;;;;;;1.40;1.20;;;28.90;6.00;;;;;;5053064;28;20467;-79
2022/08/12 13:44:43;;;;;;;1.30;1.20;;;29.00;6.60;;;;;;5053334;28;20453;-78
2022/08/12 13:47:13;;;;;;;1.30;1.20;;;29.10;6.40;;;;;;5058794;28;20486;-80
2022/08/12 13:49:47;;;;;;;1.40;1.30;;;29.10;7.20;;;;;;5055629;28;20439;-78
2022/08/12 13:52:24;;;;;;;1.30;1.20;;;29.10;7.40;;;;;;5053504;28;20449;-79
2022/08/12 13:54:53;;;;;;;2.57;1.20;;;29.20;6.60;;;;;;5060188;28;20504;-79
2022/08/12 13:57:25;;;;;;;1.67;1.57;;;29.20;7.70;;;;;;5065948;28;20449;-78
2022/08/12 13:59:55;;;;;;;1.30;1.20;;;29.20;7.90;;;;;;5066995;28;20946;-79
2022/08/12 14:02:28;;;;;;;1.20;1.10;;;29.30;9.10;;;;;;5063059;28;20497;-79
2022/08/12 14:04:57;;;;;;;1.20;1.10;;;29.30;7.80;;;;;;5061785;28;20435;-78
2022/08/12 14:07:25;;;;;;;1.63;1.40;;;29.30;8.00;;;;;;5060119;28;20455;-79
2022/08/12 14:12:45;;;;;;;1.30;1.13;;;29.20;7.40;;;;;;5046412;28;21030;-79
2022/08/12 14:15:23;;;;;;;1.00;1.00;;;29.20;6.80;;;;;;5050962;28;21218;-78
2022/08/12 14:18:12;;;;;;;1.33;1.23;;;29.30;8.00;;;;;;5055300;28;20196;-78
2022/08/12 14:20:43;;;;;;;1.13;1.03;;;29.20;6.40;;;;;;5058368;28;20450;-78
2022/08/12 14:23:15;;;;;;;1.10;1.10;;;29.30;6.90;;;;;;5058703;28;21024;-78
2022/08/12 14:26:06;;;;;;;1.10;1.00;;;29.30;8.40;;;;;;5056383;28;20471;-78
2022/08/12 14:28:40;;;;;;;1.20;1.10;;;29.30;8.10;;;;;;5048940;28;20955;-79
2022/08/12 14:31:26;;;;;;;1.40;1.30;;;29.30;5.80;;;;;;5051418;28;20471;-78
2022/08/12 14:34:01;;;;;;;3.60;1.30;;;29.30;7.30;;;;;;5056649;28;20450;-79
2022/08/12 14:36:32;;;;;;;1.80;1.00;;;29.30;5.60;;;;;;5057990;28;20524;-79
2022/08/12 14:39:03;;;;;;;2.70;1.40;;;29.30;6.20;;;;;;5054409;28;20517;-77
2022/08/12 14:41:32;;;;;;;0.97;0.97;;;29.40;7.10;;;;;;5051232;28;20478;-79
2022/08/12 14:44:16;;;;;;;1.03;1.03;;;29.40;8.40;;;;;;5059871;28;20454;-79
2022/08/12 14:47:07;;;;;;;1.37;1.17;;;29.40;8.60;;;;;;5061267;28;20552;-78
2022/08/12 14:49:35;;;;;;;1.57;1.10;;;29.50;8.30;;;;;;5059110;28;20467;-81
2022/08/12 14:52:25;;;;;;;1.53;1.23;;;29.50;8.20;;;;;;5060363;28;20477;-79
2022/08/12 14:55:14;;;;;;;2.63;1.10;;;29.50;7.60;;;;;;5057493;28;20979;-79
2022/08/12 14:58:05;;;;;;;1.03;0.90;;;29.50;7.90;;;;;;5057920;28;20466;-78
2022/08/12 15:03:26;;;;;;;1.33;1.10;;;29.50;7.50;;;;;;5058488;28;20543;-79
2022/08/12 15:06:18;;;;;;;2.27;1.00;;;29.50;6.70;;;;;;5063389;28;20482;-80
2022/08/12 15:09:08;;;;;;;1.17;1.10;;;29.50;6.70;;;;;;5057004;28;20479;-80
2022/08/12 15:11:40;;;;;;;1.30;1.20;;;29.50;7.20;;;;;;5062072;28;20463;-80
2022/08/12 15:14:25;;;;;;;1.30;1.20;;;29.50;9.50;;;;;;5057023;28;20454;-79
2022/08/12 15:16:58;;;;;;;1.37;1.27;;;29.60;8.30;;;;;;5054490;28;20462;-80
2022/08/12 15:19:29;;;;;;;1.20;1.10;;;29.60;6.40;;;;;;5056901;28;20447;-80
2022/08/12 15:22:19;;;;;;;4.13;1.50;;;29.60;7.60;;;;;;5051375;28;20482;-78
2022/08/12 15:25:07;;;;;;;2.17;1.57;;;29.60;7.30;;;;;;5064495;28;20454;-78
2022/08/12 15:27:42;;;;;;;2.97;1.80;;;29.60;7.60;;;;;;5062481;28;20479;-79
2022/08/12 15:30:31;;;;;;;2.40;1.57;;;29.70;8.40;;;;;;5062806;28;20451;-79
2022/08/12 15:33:01;;;;;;;1.40;1.30;;;29.70;8.20;;;;;;5056044;28;20478;-79
2022/08/12 15:35:42;;;;;;;1.33;1.20;;;29.70;7.20;;;;;;5057076;28;20454;-79
2022/08/12 15:38:21;;;;;;;1.10;1.10;;;29.70;7.60;;;;;;5053245;28;20469;-79
2022/08/12 15:40:52;;;;;;;0.80;0.80;;;29.60;6.30;;;;;;5057428;28;20451;-79
2022/08/12 15:43:23;;;;;;;1.23;1.10;;;29.60;6.70;;;;;;5062363;28;20532;-79
2022/08/12 15:46:12;;;;;;;1.20;1.10;;;29.60;5.80;;;;;;5062636;28;20606;-79
2022/08/12 15:48:44;;;;;;;1.30;1.20;;;29.60;5.90;;;;;;5065393;28;20469;-79